sensor_id;sensor_type;location;lat;lon;timestamp;temperature;humidity
1415;DHT22;702;49.466;11.086;2024-01-07T00:01:54;3.90;94.00
1415;DHT22;702;49.466;11.086;2024-01-07T00:04:21;3.80;93.40
1415;DHT22;702;49.466;11.086;2024-01-07T00:06:48;3.70;94.00
1415;DHT22;702;49.466;11.086;2024-01-07T00:09:17;3.80;94.00
1415;DHT22;702;49.466;11.086;2024-01-07T00:11:44;3.70;94.10
1415;DHT22;702;49.466;11.086;2024-01-07T00:14:11;3.70;94.60
1415;DHT22;702;49.466;11.086;2024-01-07T00:16:40;3.70;94.50
1415;DHT22;702;49.466;11.086;2024-01-07T00:19:07;3.70;94.60
1415;DHT22;702;49.466;11.086;2024-01-07T00:21:34;3.70;94.20
1415;DHT22;702;49.466;11.086;2024-01-07T00:24:01;3.70;94.40
1415;DHT22;702;49.466;11.086;2024-01-07T00:26:29;3.70;94.10
1415;DHT22;702;49.466;11.086;2024-01-07T00:28:56;3.70;94.30
1415;DHT22;702;49.466;11.086;2024-01-07T00:31:24;3.70;94.70
1415;DHT22;702;49.466;11.086;2024-01-07T00:33:51;3.80;94.50
1415;DHT22;702;49.466;11.086;2024-01-07T00:36:19;3.80;94.40
1415;DHT22;702;49.466;11.086;2024-01-07T00:38:46;3.70;94.10
1415;DHT22;702;49.466;11.086;2024-01-07T00:41:13;3.70;94.20
1415;DHT22;702;49.466;11.086;2024-01-07T00:43:42;3.70;94.00
1415;DHT22;702;49.466;11.086;2024-01-07T00:46:09;3.80;94.40
1415;DHT22;702;49.466;11.086;2024-01-07T00:48:36;3.70;93.60
1415;DHT22;702;49.466;11.086;2024-01-07T00:51:04;3.70;93.60
1415;DHT22;702;49.466;11.086;2024-01-07T00:53:31;3.70;93.80
1415;DHT22;702;49.466;11.086;2024-01-07T00:55:58;3.70;94.20
1415;DHT22;702;49.466;11.086;2024-01-07T00:58:26;3.80;93.50
1415;DHT22;702;49.466;11.086;2024-01-07T01:00:54;3.70;93.50
1415;DHT22;702;49.466;11.086;2024-01-07T01:03:22;3.60;93.80
1415;DHT22;702;49.466;11.086;2024-01-07T01:05:49;3.60;94.30
1415;DHT22;702;49.466;11.086;2024-01-07T01:08:17;3.60;94.50
1415;DHT22;702;49.466;11.086;2024-01-07T01:10:44;3.60;94.40
1415;DHT22;702;49.466;11.086;2024-01-07T01:13:11;3.50;94.50
1415;DHT22;702;49.466;11.086;2024-01-07T01:15:38;3.60;95.00
1415;DHT22;702;49.466;11.086;2024-01-07T01:18:07;3.50;94.60
1415;DHT22;702;49.466;11.086;2024-01-07T01:20:34;3.50;94.70
1415;DHT22;702;49.466;11.086;2024-01-07T01:23:01;3.60;95.30
1415;DHT22;702;49.466;11.086;2024-01-07T01:25:28;3.70;95.10
1415;DHT22;702;49.466;11.086;2024-01-07T01:27:56;3.70;94.10
1415;DHT22;702;49.466;11.086;2024-01-07T01:30:24;3.70;94.40
1415;DHT22;702;49.466;11.086;2024-01-07T01:32:52;3.70;93.80
1415;DHT22;702;49.466;11.086;2024-01-07T01:35:21;3.60;93.60
1415;DHT22;702;49.466;11.086;2024-01-07T01:37:48;3.70;94.00
1415;DHT22;702;49.466;11.086;2024-01-07T01:40:16;3.60;93.20
1415;DHT22;702;49.466;11.086;2024-01-07T01:42:44;3.60;93.50
1415;DHT22;702;49.466;11.086;2024-01-07T01:45:11;3.60;93.70
1415;DHT22;702;49.466;11.086;2024-01-07T01:47:38;3.70;93.70
1415;DHT22;702;49.466;11.086;2024-01-07T01:50:07;3.70;93.60
1415;DHT22;702;49.466;11.086;2024-01-07T01:52:36;3.70;93.20
1415;DHT22;702;49.466;11.086;2024-01-07T01:55:04;3.70;93.10
1415;DHT22;702;49.466;11.086;2024-01-07T01:57:33;3.60;92.90
1415;DHT22;702;49.466;11.086;2024-01-07T02:00:02;3.60;93.20
1415;DHT22;702;49.466;11.086;2024-01-07T02:02:30;3.50;93.10
1415;DHT22;702;49.466;11.086;2024-01-07T02:04:59;3.60;93.80
1415;DHT22;702;49.466;11.086;2024-01-07T02:07:27;3.70;93.60
1415;DHT22;702;49.466;11.086;2024-01-07T02:09:56;3.50;93.00
1415;DHT22;702;49.466;11.086;2024-01-07T02:12:23;3.60;93.80
1415;DHT22;702;49.466;11.086;2024-01-07T02:14:50;3.70;93.20
1415;DHT22;702;49.466;11.086;2024-01-07T02:17:19;3.70;93.00
1415;DHT22;702;49.466;11.086;2024-01-07T02:19:46;3.80;93.10
1415;DHT22;702;49.466;11.086;2024-01-07T02:22:14;3.80;92.40
1415;DHT22;702;49.466;11.086;2024-01-07T02:24:42;3.70;92.30
1415;DHT22;702;49.466;11.086;2024-01-07T02:27:09;3.80;92.30
1415;DHT22;702;49.466;11.086;2024-01-07T02:29:39;3.80;92.40
1415;DHT22;702;49.466;11.086;2024-01-07T02:32:06;3.80;92.20
1415;DHT22;702;49.466;11.086;2024-01-07T02:34:33;3.80;92.10
1415;DHT22;702;49.466;11.086;2024-01-07T02:37:01;3.90;92.60
1415;DHT22;702;49.466;11.086;2024-01-07T02:39:28;4.00;92.30
1415;DHT22;702;49.466;11.086;2024-01-07T02:41:57;4.00;91.50
1415;DHT22;702;49.466;11.086;2024-01-07T02:44:24;4.10;90.80
1415;DHT22;702;49.466;11.086;2024-01-07T02:46:51;4.00;89.80
1415;DHT22;702;49.466;11.086;2024-01-07T02:49:19;3.90;89.50
1415;DHT22;702;49.466;11.086;2024-01-07T02:51:47;3.80;88.90
1415;DHT22;702;49.466;11.086;2024-01-07T02:54:15;3.80;87.20
1415;DHT22;702;49.466;11.086;2024-01-07T02:56:43;3.70;85.80
1415;DHT22;702;49.466;11.086;2024-01-07T02:59:11;3.60;85.70
1415;DHT22;702;49.466;11.086;2024-01-07T03:01:38;3.60;85.30
1415;DHT22;702;49.466;11.086;2024-01-07T03:04:10;3.60;85.00
1415;DHT22;702;49.466;11.086;2024-01-07T03:06:37;3.60;85.10
1415;DHT22;702;49.466;11.086;2024-01-07T03:09:05;3.50;85.60
1415;DHT22;702;49.466;11.086;2024-01-07T03:11:33;3.40;84.80
1415;DHT22;702;49.466;11.086;2024-01-07T03:14:00;3.50;85.10
1415;DHT22;702;49.466;11.086;2024-01-07T03:16:29;3.40;84.70
1415;DHT22;702;49.466;11.086;2024-01-07T03:18:56;3.40;84.50
1415;DHT22;702;49.466;11.086;2024-01-07T03:21:24;3.40;84.60
1415;DHT22;702;49.466;11.086;2024-01-07T03:23:52;3.40;84.40
1415;DHT22;702;49.466;11.086;2024-01-07T03:26:19;3.40;83.90
1415;DHT22;702;49.466;11.086;2024-01-07T03:28:47;3.40;84.00
1415;DHT22;702;49.466;11.086;2024-01-07T03:31:16;3.30;84.10
1415;DHT22;702;49.466;11.086;2024-01-07T03:33:48;3.40;84.00
1415;DHT22;702;49.466;11.086;2024-01-07T03:36:15;3.30;83.80
1415;DHT22;702;49.466;11.086;2024-01-07T03:38:43;3.30;84.00
1415;DHT22;702;49.466;11.086;2024-01-07T03:41:16;3.30;83.90
1415;DHT22;702;49.466;11.086;2024-01-07T03:43:45;3.40;84.00
1415;DHT22;702;49.466;11.086;2024-01-07T03:46:12;3.30;83.60
1415;DHT22;702;49.466;11.086;2024-01-07T03:48:42;3.30;83.60
1415;DHT22;702;49.466;11.086;2024-01-07T03:51:11;3.30;83.50
1415;DHT22;702;49.466;11.086;2024-01-07T03:53:38;3.30;83.60
1415;DHT22;702;49.466;11.086;2024-01-07T03:56:06;3.30;83.30
1415;DHT22;702;49.466;11.086;2024-01-07T03:58:33;3.20;83.60
1415;DHT22;702;49.466;11.086;2024-01-07T04:01:01;3.20;83.50
1415;DHT22;702;49.466;11.086;2024-01-07T04:03:28;3.20;83.30
1415;DHT22;702;49.466;11.086;2024-01-07T04:05:56;3.30;83.30
1415;DHT22;702;49.466;11.086;2024-01-07T04:08:24;3.30;83.10
1415;DHT22;702;49.466;11.086;2024-01-07T04:10:52;3.20;83.30
1415;DHT22;702;49.466;11.086;2024-01-07T04:13:19;3.20;83.20
1415;DHT22;702;49.466;11.086;2024-01-07T04:15:46;3.20;82.80
1415;DHT22;702;49.466;11.086;2024-01-07T04:18:13;3.20;83.10
1415;DHT22;702;49.466;11.086;2024-01-07T04:20:40;3.10;82.70
1415;DHT22;702;49.466;11.086;2024-01-07T04:23:08;3.10;82.50
1415;DHT22;702;49.466;11.086;2024-01-07T04:25:38;3.00;82.30
1415;DHT22;702;49.466;11.086;2024-01-07T04:28:06;3.00;82.20
1415;DHT22;702;49.466;11.086;2024-01-07T04:30:33;3.00;82.20
1415;DHT22;702;49.466;11.086;2024-01-07T04:33:01;3.00;82.20
1415;DHT22;702;49.466;11.086;2024-01-07T04:35:28;3.00;81.70
1415;DHT22;702;49.466;11.086;2024-01-07T04:37:55;3.00;81.40
1415;DHT22;702;49.466;11.086;2024-01-07T04:40:22;2.90;81.20
1415;DHT22;702;49.466;11.086;2024-01-07T04:42:51;2.90;81.40
1415;DHT22;702;49.466;11.086;2024-01-07T04:45:19;2.90;81.40
1415;DHT22;702;49.466;11.086;2024-01-07T04:47:46;2.80;81.00
1415;DHT22;702;49.466;11.086;2024-01-07T04:50:14;2.80;81.10
1415;DHT22;702;49.466;11.086;2024-01-07T04:52:45;2.80;81.40
1415;DHT22;702;49.466;11.086;2024-01-07T04:55:12;2.80;81.30
1415;DHT22;702;49.466;11.086;2024-01-07T04:57:39;2.80;81.50
1415;DHT22;702;49.466;11.086;2024-01-07T05:00:09;2.80;81.40
1415;DHT22;702;49.466;11.086;2024-01-07T05:02:38;2.90;81.30
1415;DHT22;702;49.466;11.086;2024-01-07T05:05:07;2.80;81.40
1415;DHT22;702;49.466;11.086;2024-01-07T05:07:34;2.80;81.20
1415;DHT22;702;49.466;11.086;2024-01-07T05:10:05;2.80;81.30
1415;DHT22;702;49.466;11.086;2024-01-07T05:12:32;2.70;80.70
1415;DHT22;702;49.466;11.086;2024-01-07T05:15:00;2.70;80.40
1415;DHT22;702;49.466;11.086;2024-01-07T05:17:30;2.70;80.40
1415;DHT22;702;49.466;11.086;2024-01-07T05:19:57;2.60;80.30
1415;DHT22;702;49.466;11.086;2024-01-07T05:22:24;2.60;80.00
1415;DHT22;702;49.466;11.086;2024-01-07T05:24:52;2.60;80.10
1415;DHT22;702;49.466;11.086;2024-01-07T05:27:19;2.60;80.10
1415;DHT22;702;49.466;11.086;2024-01-07T05:29:46;2.50;79.60
1415;DHT22;702;49.466;11.086;2024-01-07T05:32:13;2.50;79.90
1415;DHT22;702;49.466;11.086;2024-01-07T05:34:42;2.50;80.00
1415;DHT22;702;49.466;11.086;2024-01-07T05:37:09;2.50;80.00
1415;DHT22;702;49.466;11.086;2024-01-07T05:39:37;2.50;80.00
1415;DHT22;702;49.466;11.086;2024-01-07T05:42:05;2.50;79.80
1415;DHT22;702;49.466;11.086;2024-01-07T05:44:32;2.40;79.60
1415;DHT22;702;49.466;11.086;2024-01-07T05:47:00;2.40;79.80
1415;DHT22;702;49.466;11.086;2024-01-07T05:49:27;2.40;79.60
1415;DHT22;702;49.466;11.086;2024-01-07T05:51:56;2.40;79.80
1415;DHT22;702;49.466;11.086;2024-01-07T05:54:23;2.40;79.30
1415;DHT22;702;49.466;11.086;2024-01-07T05:56:52;2.30;79.30
1415;DHT22;702;49.466;11.086;2024-01-07T05:59:19;2.30;79.30
1415;DHT22;702;49.466;11.086;2024-01-07T06:01:46;2.30;79.10
1415;DHT22;702;49.466;11.086;2024-01-07T06:04:14;2.30;79.10
1415;DHT22;702;49.466;11.086;2024-01-07T06:06:41;2.30;79.10
1415;DHT22;702;49.466;11.086;2024-01-07T06:09:11;2.30;79.00
1415;DHT22;702;49.466;11.086;2024-01-07T06:11:38;2.20;79.00
1415;DHT22;702;49.466;11.086;2024-01-07T06:14:06;2.20;78.80
1415;DHT22;702;49.466;11.086;2024-01-07T06:16:33;2.20;79.00
1415;DHT22;702;49.466;11.086;2024-01-07T06:19:00;2.30;78.90
1415;DHT22;702;49.466;11.086;2024-01-07T06:21:28;2.20;78.90
1415;DHT22;702;49.466;11.086;2024-01-07T06:23:55;2.20;78.90
1415;DHT22;702;49.466;11.086;2024-01-07T06:26:23;2.20;78.90
1415;DHT22;702;49.466;11.086;2024-01-07T06:28:51;2.20;78.90
1415;DHT22;702;49.466;11.086;2024-01-07T06:31:18;2.20;78.70
1415;DHT22;702;49.466;11.086;2024-01-07T06:33:45;2.10;78.90
1415;DHT22;702;49.466;11.086;2024-01-07T06:36:12;2.10;78.70
1415;DHT22;702;49.466;11.086;2024-01-07T06:38:40;2.10;78.80
1415;DHT22;702;49.466;11.086;2024-01-07T06:41:07;2.10;78.80
1415;DHT22;702;49.466;11.086;2024-01-07T06:43:37;2.00;78.80
1415;DHT22;702;49.466;11.086;2024-01-07T06:46:04;2.10;79.10
1415;DHT22;702;49.466;11.086;2024-01-07T06:48:31;2.10;79.00
1415;DHT22;702;49.466;11.086;2024-01-07T06:50:59;2.10;78.80
1415;DHT22;702;49.466;11.086;2024-01-07T06:53:29;2.10;79.20
1415;DHT22;702;49.466;11.086;2024-01-07T06:55:56;2.00;79.20
1415;DHT22;702;49.466;11.086;2024-01-07T06:58:23;2.00;79.30
1415;DHT22;702;49.466;11.086;2024-01-07T07:00:53;2.00;79.10
1415;DHT22;702;49.466;11.086;2024-01-07T07:03:20;2.10;79.20
1415;DHT22;702;49.466;11.086;2024-01-07T07:05:47;2.10;79.20
1415;DHT22;702;49.466;11.086;2024-01-07T07:08:15;2.10;78.80
1415;DHT22;702;49.466;11.086;2024-01-07T07:10:43;2.00;78.80
1415;DHT22;702;49.466;11.086;2024-01-07T07:13:11;2.00;78.90
1415;DHT22;702;49.466;11.086;2024-01-07T07:15:38;1.90;78.90
1415;DHT22;702;49.466;11.086;2024-01-07T07:18:08;2.00;79.00
1415;DHT22;702;49.466;11.086;2024-01-07T07:20:37;2.00;78.70
1415;DHT22;702;49.466;11.086;2024-01-07T07:23:05;1.90;78.50
1415;DHT22;702;49.466;11.086;2024-01-07T07:25:32;1.90;78.40
1415;DHT22;702;49.466;11.086;2024-01-07T07:27:59;1.90;78.50
1415;DHT22;702;49.466;11.086;2024-01-07T07:30:26;1.90;78.10
1415;DHT22;702;49.466;11.086;2024-01-07T07:32:55;1.90;78.10
1415;DHT22;702;49.466;11.086;2024-01-07T07:35:24;1.90;78.20
1415;DHT22;702;49.466;11.086;2024-01-07T07:37:54;1.80;78.10
1415;DHT22;702;49.466;11.086;2024-01-07T07:40:21;1.80;78.30
1415;DHT22;702;49.466;11.086;2024-01-07T07:42:49;1.90;77.80
1415;DHT22;702;49.466;11.086;2024-01-07T07:45:16;1.80;77.60
1415;DHT22;702;49.466;11.086;2024-01-07T07:47:44;1.80;77.60
1415;DHT22;702;49.466;11.086;2024-01-07T07:50:11;1.80;77.60
1415;DHT22;702;49.466;11.086;2024-01-07T07:52:41;1.80;77.50
1415;DHT22;702;49.466;11.086;2024-01-07T07:55:10;1.70;77.30
1415;DHT22;702;49.466;11.086;2024-01-07T07:57:37;1.80;77.30
1415;DHT22;702;49.466;11.086;2024-01-07T08:00:07;1.70;77.70
1415;DHT22;702;49.466;11.086;2024-01-07T08:02:38;1.70;77.20
1415;DHT22;702;49.466;11.086;2024-01-07T08:05:06;1.70;77.10
1415;DHT22;702;49.466;11.086;2024-01-07T08:07:34;1.80;77.20
1415;DHT22;702;49.466;11.086;2024-01-07T08:10:03;1.80;77.00
1415;DHT22;702;49.466;11.086;2024-01-07T08:12:35;1.90;77.10
1415;DHT22;702;49.466;11.086;2024-01-07T08:15:02;1.80;76.90
1415;DHT22;702;49.466;11.086;2024-01-07T08:17:29;1.80;76.80
1415;DHT22;702;49.466;11.086;2024-01-07T08:19:57;1.80;77.00
1415;DHT22;702;49.466;11.086;2024-01-07T08:22:25;1.80;77.00
1415;DHT22;702;49.466;11.086;2024-01-07T08:24:53;1.80;77.00
1415;DHT22;702;49.466;11.086;2024-01-07T08:27:21;1.80;77.10
1415;DHT22;702;49.466;11.086;2024-01-07T08:29:48;1.80;77.50
1415;DHT22;702;49.466;11.086;2024-01-07T08:32:16;1.80;77.10
1415;DHT22;702;49.466;11.086;2024-01-07T08:34:44;1.80;76.80
1415;DHT22;702;49.466;11.086;2024-01-07T08:37:11;1.70;76.40
1415;DHT22;702;49.466;11.086;2024-01-07T08:39:38;1.70;76.70
1415;DHT22;702;49.466;11.086;2024-01-07T08:42:05;1.60;76.70
1415;DHT22;702;49.466;11.086;2024-01-07T08:44:34;1.50;76.70
1415;DHT22;702;49.466;11.086;2024-01-07T08:47:01;1.50;76.70
1415;DHT22;702;49.466;11.086;2024-01-07T08:49:30;1.60;76.70
1415;DHT22;702;49.466;11.086;2024-01-07T08:51:58;1.50;76.50
1415;DHT22;702;49.466;11.086;2024-01-07T08:54:25;1.40;76.80
1415;DHT22;702;49.466;11.086;2024-01-07T08:56:53;1.40;76.80
1415;DHT22;702;49.466;11.086;2024-01-07T08:59:20;1.40;76.80
1415;DHT22;702;49.466;11.086;2024-01-07T09:01:49;1.40;76.70
1415;DHT22;702;49.466;11.086;2024-01-07T09:04:17;1.40;76.70
1415;DHT22;702;49.466;11.086;2024-01-07T09:06:44;1.40;76.80
1415;DHT22;702;49.466;11.086;2024-01-07T09:09:12;1.40;77.00
1415;DHT22;702;49.466;11.086;2024-01-07T09:11:39;1.40;76.90
1415;DHT22;702;49.466;11.086;2024-01-07T09:14:06;1.40;77.00
1415;DHT22;702;49.466;11.086;2024-01-07T09:16:34;1.30;77.10
1415;DHT22;702;49.466;11.086;2024-01-07T09:19:08;1.30;77.50
1415;DHT22;702;49.466;11.086;2024-01-07T09:21:35;1.20;77.00
1415;DHT22;702;49.466;11.086;2024-01-07T09:24:03;1.10;77.20
1415;DHT22;702;49.466;11.086;2024-01-07T09:26:31;1.00;77.20
1415;DHT22;702;49.466;11.086;2024-01-07T09:29:00;1.00;77.50
1415;DHT22;702;49.466;11.086;2024-01-07T09:31:27;1.00;77.40
1415;DHT22;702;49.466;11.086;2024-01-07T09:33:55;1.00;77.50
1415;DHT22;702;49.466;11.086;2024-01-07T09:36:23;1.00;77.40
1415;DHT22;702;49.466;11.086;2024-01-07T09:38:51;1.00;77.10
1415;DHT22;702;49.466;11.086;2024-01-07T09:41:19;0.80;77.10
1415;DHT22;702;49.466;11.086;2024-01-07T09:43:47;0.80;77.30
1415;DHT22;702;49.466;11.086;2024-01-07T09:46:14;0.80;77.30
1415;DHT22;702;49.466;11.086;2024-01-07T09:48:42;0.80;77.20
1415;DHT22;702;49.466;11.086;2024-01-07T09:51:11;0.80;77.10
1415;DHT22;702;49.466;11.086;2024-01-07T09:53:40;0.90;77.50
1415;DHT22;702;49.466;11.086;2024-01-07T09:56:12;0.90;77.50
1415;DHT22;702;49.466;11.086;2024-01-07T09:58:42;0.90;77.00
1415;DHT22;702;49.466;11.086;2024-01-07T10:01:10;0.90;77.30
1415;DHT22;702;49.466;11.086;2024-01-07T10:03:37;1.00;77.50
1415;DHT22;702;49.466;11.086;2024-01-07T10:06:05;0.90;76.90
1415;DHT22;702;49.466;11.086;2024-01-07T10:08:32;0.90;77.00
1415;DHT22;702;49.466;11.086;2024-01-07T10:11:01;0.90;77.10
1415;DHT22;702;49.466;11.086;2024-01-07T10:13:29;0.80;76.80
1415;DHT22;702;49.466;11.086;2024-01-07T10:15:57;0.70;76.60
1415;DHT22;702;49.466;11.086;2024-01-07T10:18:25;0.70;76.30
1415;DHT22;702;49.466;11.086;2024-01-07T10:20:52;0.70;76.40
1415;DHT22;702;49.466;11.086;2024-01-07T10:23:20;0.70;76.20
1415;DHT22;702;49.466;11.086;2024-01-07T10:25:48;0.70;76.30
1415;DHT22;702;49.466;11.086;2024-01-07T10:28:17;0.70;76.30
1415;DHT22;702;49.466;11.086;2024-01-07T10:30:48;0.80;76.20
1415;DHT22;702;49.466;11.086;2024-01-07T10:33:17;0.80;76.10
1415;DHT22;702;49.466;11.086;2024-01-07T10:35:51;0.80;76.20
1415;DHT22;702;49.466;11.086;2024-01-07T10:38:20;0.80;76.20
1415;DHT22;702;49.466;11.086;2024-01-07T10:40:50;0.80;76.20
1415;DHT22;702;49.466;11.086;2024-01-07T10:43:20;0.80;76.30
1415;DHT22;702;49.466;11.086;2024-01-07T10:45:48;0.90;76.60
1415;DHT22;702;49.466;11.086;2024-01-07T10:48:17;0.90;76.60
1415;DHT22;702;49.466;11.086;2024-01-07T10:50:47;1.00;76.50
1415;DHT22;702;49.466;11.086;2024-01-07T10:53:19;1.00;76.10
1415;DHT22;702;49.466;11.086;2024-01-07T10:55:54;0.90;76.20
1415;DHT22;702;49.466;11.086;2024-01-07T10:58:29;0.90;76.10
1415;DHT22;702;49.466;11.086;2024-01-07T11:00:58;0.80;76.00
1415;DHT22;702;49.466;11.086;2024-01-07T11:03:33;0.90;75.90
1415;DHT22;702;49.466;11.086;2024-01-07T11:06:08;1.00;76.00
1415;DHT22;702;49.466;11.086;2024-01-07T11:08:45;1.00;75.90
1415;DHT22;702;49.466;11.086;2024-01-07T11:11:18;1.00;75.60
1415;DHT22;702;49.466;11.086;2024-01-07T11:13:48;0.90;75.70
1415;DHT22;702;49.466;11.086;2024-01-07T11:16:43;0.90;76.00
1415;DHT22;702;49.466;11.086;2024-01-07T11:19:13;0.80;75.90
1415;DHT22;702;49.466;11.086;2024-01-07T11:21:41;0.70;76.00
1415;DHT22;702;49.466;11.086;2024-01-07T11:24:08;0.80;76.10
1415;DHT22;702;49.466;11.086;2024-01-07T11:26:35;0.70;75.80
1415;DHT22;702;49.466;11.086;2024-01-07T11:29:08;0.70;75.80
1415;DHT22;702;49.466;11.086;2024-01-07T11:31:44;0.70;76.20
1415;DHT22;702;49.466;11.086;2024-01-07T11:34:38;0.70;76.00
1415;DHT22;702;49.466;11.086;2024-01-07T11:37:09;0.70;76.00
1415;DHT22;702;49.466;11.086;2024-01-07T11:39:37;0.70;75.90
1415;DHT22;702;49.466;11.086;2024-01-07T11:42:05;0.70;75.80
1415;DHT22;702;49.466;11.086;2024-01-07T11:44:37;0.60;75.80
1415;DHT22;702;49.466;11.086;2024-01-07T11:47:04;0.50;75.90
1415;DHT22;702;49.466;11.086;2024-01-07T11:49:32;0.50;75.70
1415;DHT22;702;49.466;11.086;2024-01-07T11:51:59;0.60;75.80
1415;DHT22;702;49.466;11.086;2024-01-07T11:54:28;0.60;75.70
1415;DHT22;702;49.466;11.086;2024-01-07T11:56:56;0.60;75.40
1415;DHT22;702;49.466;11.086;2024-01-07T11:59:23;0.60;75.30
1415;DHT22;702;49.466;11.086;2024-01-07T12:01:52;0.60;75.40
1415;DHT22;702;49.466;11.086;2024-01-07T12:04:21;0.60;75.20
1415;DHT22;702;49.466;11.086;2024-01-07T12:06:49;0.60;75.20
1415;DHT22;702;49.466;11.086;2024-01-07T12:09:16;0.70;74.90
1415;DHT22;702;49.466;11.086;2024-01-07T12:11:44;0.60;74.60
1415;DHT22;702;49.466;11.086;2024-01-07T12:14:12;0.50;74.80
1415;DHT22;702;49.466;11.086;2024-01-07T12:16:39;0.50;74.60
1415;DHT22;702;49.466;11.086;2024-01-07T12:19:08;0.50;74.70
1415;DHT22;702;49.466;11.086;2024-01-07T12:21:36;0.60;74.80
1415;DHT22;702;49.466;11.086;2024-01-07T12:24:04;0.70;75.00
1415;DHT22;702;49.466;11.086;2024-01-07T12:26:32;0.70;74.70
1415;DHT22;702;49.466;11.086;2024-01-07T12:29:00;0.70;74.90
1415;DHT22;702;49.466;11.086;2024-01-07T12:31:30;0.70;74.80
1415;DHT22;702;49.466;11.086;2024-01-07T12:33:58;0.70;74.90
1415;DHT22;702;49.466;11.086;2024-01-07T12:36:26;0.70;74.80
1415;DHT22;702;49.466;11.086;2024-01-07T12:38:54;0.70;74.70
1415;DHT22;702;49.466;11.086;2024-01-07T12:41:21;0.70;74.60
1415;DHT22;702;49.466;11.086;2024-01-07T12:43:49;0.70;74.60
1415;DHT22;702;49.466;11.086;2024-01-07T12:46:17;0.70;74.50
1415;DHT22;702;49.466;11.086;2024-01-07T12:48:44;0.70;74.40
1415;DHT22;702;49.466;11.086;2024-01-07T12:51:11;0.70;74.60
1415;DHT22;702;49.466;11.086;2024-01-07T12:53:40;0.60;74.20
1415;DHT22;702;49.466;11.086;2024-01-07T12:56:07;0.60;74.00
1415;DHT22;702;49.466;11.086;2024-01-07T12:58:34;0.50;73.80
1415;DHT22;702;49.466;11.086;2024-01-07T13:01:02;0.50;74.50
1415;DHT22;702;49.466;11.086;2024-01-07T13:03:29;0.50;73.90
1415;DHT22;702;49.466;11.086;2024-01-07T13:05:57;0.50;74.00
1415;DHT22;702;49.466;11.086;2024-01-07T13:08:24;0.50;73.60
1415;DHT22;702;49.466;11.086;2024-01-07T13:10:55;0.60;74.00
1415;DHT22;702;49.466;11.086;2024-01-07T13:13:22;0.60;73.80
1415;DHT22;702;49.466;11.086;2024-01-07T13:15:49;0.60;73.20
1415;DHT22;702;49.466;11.086;2024-01-07T13:18:17;0.50;73.20
1415;DHT22;702;49.466;11.086;2024-01-07T13:20:44;0.50;73.30
1415;DHT22;702;49.466;11.086;2024-01-07T13:23:12;0.60;73.70
1415;DHT22;702;49.466;11.086;2024-01-07T13:25:39;0.60;73.20
1415;DHT22;702;49.466;11.086;2024-01-07T13:28:08;0.50;72.90
1415;DHT22;702;49.466;11.086;2024-01-07T13:30:37;0.60;73.20
1415;DHT22;702;49.466;11.086;2024-01-07T13:33:06;0.60;73.10
1415;DHT22;702;49.466;11.086;2024-01-07T13:35:33;0.70;72.60
1415;DHT22;702;49.466;11.086;2024-01-07T13:38:01;0.60;72.40
1415;DHT22;702;49.466;11.086;2024-01-07T13:40:29;0.50;72.50
1415;DHT22;702;49.466;11.086;2024-01-07T13:42:56;0.60;72.70
1415;DHT22;702;49.466;11.086;2024-01-07T13:45:24;0.50;72.40
1415;DHT22;702;49.466;11.086;2024-01-07T13:47:53;0.50;72.00
1415;DHT22;702;49.466;11.086;2024-01-07T13:50:20;0.50;72.10
1415;DHT22;702;49.466;11.086;2024-01-07T13:52:47;0.50;71.90
1415;DHT22;702;49.466;11.086;2024-01-07T13:55:15;0.40;71.80
1415;DHT22;702;49.466;11.086;2024-01-07T13:57:43;0.40;71.70
1415;DHT22;702;49.466;11.086;2024-01-07T14:00:11;0.40;71.70
1415;DHT22;702;49.466;11.086;2024-01-07T14:02:45;0.50;71.40
1415;DHT22;702;49.466;11.086;2024-01-07T14:05:12;0.40;71.40
1415;DHT22;702;49.466;11.086;2024-01-07T14:07:40;0.40;71.30
1415;DHT22;702;49.466;11.086;2024-01-07T14:10:08;0.40;71.20
1415;DHT22;702;49.466;11.086;2024-01-07T14:12:35;0.40;71.10
1415;DHT22;702;49.466;11.086;2024-01-07T14:15:05;0.40;70.90
1415;DHT22;702;49.466;11.086;2024-01-07T14:17:33;0.40;71.10
1415;DHT22;702;49.466;11.086;2024-01-07T14:20:02;0.40;71.30
1415;DHT22;702;49.466;11.086;2024-01-07T14:22:30;0.30;71.10
1415;DHT22;702;49.466;11.086;2024-01-07T14:24:57;0.30;71.10
1415;DHT22;702;49.466;11.086;2024-01-07T14:27:24;0.30;71.00
1415;DHT22;702;49.466;11.086;2024-01-07T14:29:52;0.30;71.30
1415;DHT22;702;49.466;11.086;2024-01-07T14:32:20;0.30;70.90
1415;DHT22;702;49.466;11.086;2024-01-07T14:34:47;0.20;70.60
1415;DHT22;702;49.466;11.086;2024-01-07T14:37:17;0.20;70.70
1415;DHT22;702;49.466;11.086;2024-01-07T14:39:44;0.20;70.20
1415;DHT22;702;49.466;11.086;2024-01-07T14:42:13;0.20;70.30
1415;DHT22;702;49.466;11.086;2024-01-07T14:44:40;0.10;70.10
1415;DHT22;702;49.466;11.086;2024-01-07T14:47:07;0.10;70.10
1415;DHT22;702;49.466;11.086;2024-01-07T14:49:34;0.10;70.20
1415;DHT22;702;49.466;11.086;2024-01-07T14:52:02;0.10;70.40
1415;DHT22;702;49.466;11.086;2024-01-07T14:54:31;0.10;70.20
1415;DHT22;702;49.466;11.086;2024-01-07T14:57:00;0.10;70.60
1415;DHT22;702;49.466;11.086;2024-01-07T14:59:28;0.00;69.60
1415;DHT22;702;49.466;11.086;2024-01-07T15:01:55;-0.10;69.70
1415;DHT22;702;49.466;11.086;2024-01-07T15:04:22;-0.20;70.00
1415;DHT22;702;49.466;11.086;2024-01-07T15:06:50;-0.20;70.30
1415;DHT22;702;49.466;11.086;2024-01-07T15:09:17;-0.20;70.10
1415;DHT22;702;49.466;11.086;2024-01-07T15:11:48;-0.20;70.30
1415;DHT22;702;49.466;11.086;2024-01-07T15:14:16;-0.20;70.10
1415;DHT22;702;49.466;11.086;2024-01-07T15:16:43;-0.20;70.30
1415;DHT22;702;49.466;11.086;2024-01-07T15:19:12;-0.30;70.30
1415;DHT22;702;49.466;11.086;2024-01-07T15:21:39;-0.30;70.30
1415;DHT22;702;49.466;11.086;2024-01-07T15:24:06;-0.30;70.10
1415;DHT22;702;49.466;11.086;2024-01-07T15:26:34;-0.40;70.20
1415;DHT22;702;49.466;11.086;2024-01-07T15:29:02;-0.30;70.40
1415;DHT22;702;49.466;11.086;2024-01-07T15:31:30;-0.30;70.00
1415;DHT22;702;49.466;11.086;2024-01-07T15:33:57;-0.40;69.30
1415;DHT22;702;49.466;11.086;2024-01-07T15:36:25;-0.50;69.20
1415;DHT22;702;49.466;11.086;2024-01-07T15:38:53;-0.50;69.30
1415;DHT22;702;49.466;11.086;2024-01-07T15:41:20;-0.50;69.30
1415;DHT22;702;49.466;11.086;2024-01-07T15:43:48;-0.50;68.90
1415;DHT22;702;49.466;11.086;2024-01-07T15:46:16;-0.50;68.90
1415;DHT22;702;49.466;11.086;2024-01-07T15:48:43;-0.50;68.80
1415;DHT22;702;49.466;11.086;2024-01-07T15:51:10;-0.50;68.80
1415;DHT22;702;49.466;11.086;2024-01-07T15:53:37;-0.50;68.60
1415;DHT22;702;49.466;11.086;2024-01-07T15:56:05;-0.50;68.80
1415;DHT22;702;49.466;11.086;2024-01-07T15:58:33;-0.50;68.80
1415;DHT22;702;49.466;11.086;2024-01-07T16:01:02;-0.50;68.90
1415;DHT22;702;49.466;11.086;2024-01-07T16:03:32;-0.50;69.00
1415;DHT22;702;49.466;11.086;2024-01-07T16:06:01;-0.50;69.10
1415;DHT22;702;49.466;11.086;2024-01-07T16:08:29;-0.60;69.00
1415;DHT22;702;49.466;11.086;2024-01-07T16:10:58;-0.60;68.60
1415;DHT22;702;49.466;11.086;2024-01-07T16:13:25;-0.60;69.00
1415;DHT22;702;49.466;11.086;2024-01-07T16:15:53;-0.70;69.10
1415;DHT22;702;49.466;11.086;2024-01-07T16:18:20;-0.70;68.70
1415;DHT22;702;49.466;11.086;2024-01-07T16:20:49;-0.80;68.40
1415;DHT22;702;49.466;11.086;2024-01-07T16:23:17;-0.80;68.80